createdAt,value
2022-10-11T00:01:22.416Z,2.55
2022-10-11T00:03:48.899Z,2.88
2022-10-11T00:06:15.442Z,2.83
2022-10-11T00:08:42.090Z,2.55
2022-10-11T00:11:10.360Z,3.58
2022-10-11T00:13:36.811Z,3.10
2022-10-11T00:16:09.003Z,3.15
2022-10-11T00:18:35.520Z,3.13
2022-10-11T00:21:08.437Z,2.85
2022-10-11T00:23:35.350Z,3.60
2022-10-11T00:26:05.052Z,3.28
2022-10-11T00:28:32.588Z,3.10
2022-10-11T00:30:59.866Z,2.88
2022-10-11T00:33:26.354Z,2.50
2022-10-11T00:35:52.894Z,2.65
2022-10-11T00:38:19.429Z,2.83
2022-10-11T00:40:45.872Z,2.88
2022-10-11T00:43:21.934Z,2.35
2022-10-11T00:45:57.131Z,3.08
2022-10-11T00:48:44.627Z,2.42
2022-10-11T00:51:25.889Z,2.58
2022-10-11T00:53:53.362Z,2.75
2022-10-11T00:56:26.006Z,2.92
2022-10-11T00:58:56.049Z,2.42
2022-10-11T01:01:22.712Z,2.92
2022-10-11T01:03:49.309Z,4.13
2022-10-11T01:06:16.050Z,2.88
2022-10-11T01:08:43.149Z,2.92
2022-10-11T01:11:17.086Z,3.75
2022-10-11T01:14:06.338Z,3.50
2022-10-11T01:16:47.613Z,3.08
2022-10-11T01:19:28.725Z,3.33
2022-10-11T01:22:32.898Z,2.92
2022-10-11T01:25:24.533Z,2.70
2022-10-11T01:27:59.856Z,2.85
2022-10-11T01:30:30.204Z,2.88
2022-10-11T01:33:03.399Z,2.60
2022-10-11T01:35:45.357Z,2.90
2022-10-11T01:38:37.795Z,2.55
2022-10-11T01:41:09.688Z,3.35
2022-10-11T01:43:38.657Z,2.45
2022-10-11T01:46:07.661Z,3.40
2022-10-11T01:48:47.060Z,3.13
2022-10-11T01:51:14.093Z,2.33
2022-10-11T01:54:00.322Z,3.40
2022-10-11T01:56:45.522Z,2.90
2022-10-11T01:59:41.599Z,3.30
2022-10-11T02:02:32.711Z,3.15
2022-10-11T02:05:20.321Z,3.05
2022-10-11T02:07:58.214Z,3.38
2022-10-11T02:10:37.338Z,2.90
2022-10-11T02:13:13.201Z,3.00
2022-10-11T02:15:42.829Z,2.90
2022-10-11T02:18:18.149Z,3.40
2022-10-11T02:20:45.546Z,3.42
2022-10-11T02:23:16.982Z,3.70
2022-10-11T02:25:45.495Z,3.47
2022-10-11T02:28:19.048Z,3.87
2022-10-11T02:30:49.750Z,3.55
2022-10-11T02:33:24.631Z,3.03
2022-10-11T02:35:59.438Z,3.15
2022-10-11T02:38:32.012Z,3.15
2022-10-11T02:41:10.658Z,2.95
2022-10-11T02:43:41.710Z,3.60
2022-10-11T02:46:09.887Z,3.92
2022-10-11T02:48:37.372Z,3.13
2022-10-11T02:51:04.333Z,3.45
2022-10-11T02:53:30.979Z,3.60
2022-10-11T02:55:57.738Z,3.50
2022-10-11T02:58:24.181Z,3.65
2022-10-11T03:00:50.612Z,3.60
2022-10-11T03:03:17.102Z,3.42
2022-10-11T03:05:43.908Z,4.18
2022-10-11T03:08:12.765Z,4.30
2022-10-11T03:10:39.722Z,3.83
2022-10-11T03:13:06.995Z,3.72
2022-10-11T03:15:33.636Z,4.13
2022-10-11T03:18:00.433Z,3.70
2022-10-11T03:20:26.855Z,3.72
2022-10-11T03:22:53.394Z,4.20
2022-10-11T03:25:19.930Z,4.75
2022-10-11T03:27:46.322Z,4.03
2022-10-11T03:30:17.299Z,4.03
2022-10-11T03:32:45.028Z,3.78
2022-10-11T03:35:11.870Z,4.28
2022-10-11T03:37:38.550Z,4.07
2022-10-11T03:40:06.977Z,3.95
2022-10-11T03:42:33.423Z,4.32
2022-10-11T03:45:01.767Z,3.72
2022-10-11T03:47:28.266Z,3.78
2022-10-11T03:50:10.589Z,4.18
2022-10-11T03:52:37.384Z,4.93
2022-10-11T03:55:05.591Z,5.47
2022-10-11T03:57:32.170Z,4.50
2022-10-11T03:59:58.833Z,4.80
2022-10-11T04:02:25.422Z,5.22
2022-10-11T04:04:52.250Z,4.63
2022-10-11T04:07:18.727Z,5.07
2022-10-11T04:09:45.511Z,5.15
2022-10-11T04:12:12.083Z,5.50
2022-10-11T04:14:38.546Z,5.63
2022-10-11T04:17:04.970Z,5.25
2022-10-11T04:19:31.707Z,4.75
2022-10-11T04:21:58.410Z,5.13
2022-10-11T04:24:25.105Z,4.22
2022-10-11T04:26:59.202Z,4.55
2022-10-11T04:29:28.866Z,4.82
2022-10-11T04:31:58.774Z,4.57
2022-10-11T04:34:25.605Z,3.92
2022-10-11T04:36:52.205Z,4.60
2022-10-11T04:39:18.844Z,4.57
2022-10-11T04:41:45.533Z,4.28
2022-10-11T04:44:12.133Z,4.28
2022-10-11T04:46:38.561Z,4.50
2022-10-11T04:49:05.426Z,4.80
2022-10-11T04:51:33.604Z,4.40
2022-10-11T04:54:00.129Z,4.82
2022-10-11T04:56:26.561Z,4.38
2022-10-11T04:58:54.469Z,4.50
2022-10-11T05:01:21.673Z,4.93
2022-10-11T05:03:49.505Z,4.70
2022-10-11T05:06:16.043Z,4.80
2022-10-11T05:08:42.632Z,5.35
2022-10-11T05:11:15.512Z,4.53
2022-10-11T05:13:43.362Z,4.40
2022-10-11T05:16:11.302Z,4.47
2022-10-11T05:18:39.021Z,5.10
2022-10-11T05:21:15.170Z,4.78
2022-10-11T05:23:42.110Z,5.00
2022-10-11T05:26:08.897Z,5.15
2022-10-11T05:28:35.523Z,4.53
2022-10-11T05:31:02.066Z,5.28
2022-10-11T05:33:28.548Z,5.05
2022-10-11T05:35:55.064Z,4.75
2022-10-11T05:38:22.827Z,5.15
2022-10-11T05:40:49.382Z,6.30
2022-10-11T05:43:16.185Z,5.63
2022-10-11T05:45:44.092Z,5.28
2022-10-11T05:48:11.412Z,5.30
2022-10-11T05:50:38.911Z,5.70
2022-10-11T05:53:06.091Z,6.35
2022-10-11T05:55:37.654Z,6.32
2022-10-11T05:58:05.689Z,6.82
2022-10-11T06:00:32.177Z,7.15
2022-10-11T06:02:58.653Z,7.05
2022-10-11T06:05:25.147Z,7.57
2022-10-11T06:07:51.630Z,7.30
2022-10-11T06:10:18.159Z,7.60
2022-10-11T06:12:44.569Z,6.50
2022-10-11T06:15:11.240Z,7.35
2022-10-11T06:17:38.096Z,6.72
2022-10-11T06:20:04.927Z,6.72
2022-10-11T06:22:31.370Z,7.85
2022-10-11T06:24:57.803Z,7.38
2022-10-11T06:27:26.883Z,9.50
2022-10-11T06:29:53.321Z,9.68
2022-10-11T06:32:19.877Z,8.88
2022-10-11T06:34:48.609Z,9.35
2022-10-11T06:37:15.434Z,11.38
2022-10-11T06:39:42.309Z,10.65
2022-10-11T06:42:11.301Z,11.00
2022-10-11T06:44:38.544Z,12.13
2022-10-11T06:47:08.723Z,12.90
2022-10-11T06:49:35.344Z,12.55
2022-10-11T06:52:01.792Z,11.82
2022-10-11T06:54:28.359Z,11.55
2022-10-11T06:56:54.817Z,12.07
2022-10-11T06:59:21.385Z,13.77
2022-10-11T07:01:47.851Z,16.70
2022-10-11T07:04:14.339Z,14.95
2022-10-11T07:06:41.495Z,18.42
2022-10-11T07:09:08.550Z,16.63
2022-10-11T07:11:35.820Z,14.50
2022-10-11T07:14:07.550Z,12.75
2022-10-11T09:34:06.097Z,33.95
2022-10-11T09:36:43.088Z,34.28
2022-10-11T09:39:33.215Z,32.47
2022-10-11T09:42:07.829Z,32.65
2022-10-11T09:44:39.170Z,31.00
2022-10-11T09:47:20.388Z,27.25
2022-10-11T09:50:15.012Z,26.95
2022-10-11T09:52:56.267Z,27.67
2022-10-11T09:55:36.409Z,26.90
2022-10-11T09:58:05.903Z,24.65
2022-10-11T10:00:34.012Z,26.00
2022-10-11T10:04:09.301Z,25.45
2022-10-11T10:07:10.887Z,26.25
2022-10-11T10:09:46.717Z,22.55
2022-10-11T10:12:43.629Z,23.10
2022-10-11T10:15:34.828Z,21.35
2022-10-11T10:18:19.088Z,21.13
2022-10-11T10:20:52.855Z,20.80
2022-10-11T10:23:25.047Z,19.42
2022-10-11T10:26:37.227Z,19.58
2022-10-11T10:45:30.378Z,17.52
2022-10-11T10:53:03.211Z,15.82
2022-10-11T10:56:45.633Z,15.98
2022-10-11T12:36:40.326Z,4.63
2022-10-11T14:56:36.512Z,3.72
2022-10-11T16:17:41.786Z,2.95
2022-10-11T16:20:08.841Z,3.20
2022-10-11T16:22:35.891Z,3.40
2022-10-11T16:25:02.671Z,3.72
2022-10-11T16:27:29.270Z,3.67
2022-10-11T16:29:56.200Z,3.17
2022-10-11T16:32:24.187Z,3.78
2022-10-11T16:34:50.844Z,3.55
2022-10-11T16:37:17.407Z,3.67
2022-10-11T16:39:43.927Z,3.80
2022-10-11T16:42:10.564Z,4.32
2022-10-11T16:44:38.826Z,4.95
2022-10-11T16:47:05.949Z,5.07
2022-10-11T16:49:32.870Z,4.40
2022-10-11T16:52:00.161Z,4.05
2022-10-11T16:54:33.010Z,3.97
2022-10-11T16:56:59.680Z,3.97
2022-10-11T16:59:26.184Z,4.22
2022-10-11T17:01:52.676Z,4.55
2022-10-11T17:04:19.234Z,4.05
2022-10-11T17:06:45.794Z,4.28
2022-10-11T17:09:12.886Z,4.43
2022-10-11T17:11:39.841Z,5.03
2022-10-11T17:14:07.096Z,4.97
2022-10-11T17:16:34.537Z,4.18
2022-10-11T17:19:01.773Z,3.83
2022-10-11T17:21:28.312Z,4.00
2022-10-11T17:23:55.026Z,4.20
2022-10-11T17:26:26.574Z,5.05
2022-10-11T17:28:54.717Z,4.28
2022-10-11T17:31:21.881Z,4.40
2022-10-11T17:33:48.478Z,4.43
2022-10-11T17:36:17.303Z,4.07
2022-10-11T17:38:44.015Z,4.22
2022-10-11T17:41:10.982Z,5.07
2022-10-11T17:43:37.492Z,4.50
2022-10-11T17:46:06.117Z,4.63
2022-10-11T17:48:36.556Z,5.00
2022-10-11T17:51:11.612Z,4.18
2022-10-11T17:53:39.154Z,4.85
2022-10-11T17:56:09.467Z,4.63
2022-10-11T17:58:36.087Z,4.68
2022-10-11T18:01:08.935Z,4.18
2022-10-11T18:03:36.046Z,5.57
2022-10-11T18:06:04.741Z,4.45
2022-10-11T18:08:32.759Z,5.03
2022-10-11T18:11:04.067Z,5.03
2022-10-11T18:13:30.879Z,4.68
2022-10-11T18:15:57.434Z,4.40
2022-10-11T18:18:23.958Z,4.55
2022-10-11T18:20:50.853Z,4.80
2022-10-11T18:23:18.767Z,4.78
2022-10-11T18:25:48.623Z,4.45
2022-10-11T18:28:17.502Z,5.13
2022-10-11T18:30:46.466Z,5.32
2022-10-11T18:33:14.591Z,5.22
2022-10-11T18:35:41.395Z,4.00
2022-10-11T18:38:08.808Z,5.25
2022-10-11T18:40:43.428Z,4.70
2022-10-11T18:43:13.336Z,5.28
2022-10-11T18:45:39.811Z,5.30
2022-10-11T18:48:08.487Z,5.45
2022-10-11T18:50:35.522Z,4.80
2022-10-11T18:53:02.138Z,5.25
2022-10-11T18:55:28.706Z,5.28
2022-10-11T18:57:55.127Z,5.43
2022-10-11T19:00:40.108Z,5.05
2022-10-11T19:03:07.415Z,5.47
2022-10-11T19:05:33.849Z,5.15
2022-10-11T19:08:00.298Z,4.57
2022-10-11T19:10:26.748Z,5.43
2022-10-11T19:12:53.233Z,5.28
2022-10-11T19:15:19.707Z,5.90
2022-10-11T19:17:46.191Z,6.07
2022-10-11T19:20:12.734Z,5.95
2022-10-11T19:22:39.180Z,6.20
2022-10-11T19:25:06.233Z,5.82
2022-10-11T19:27:32.705Z,5.10
2022-10-11T19:30:00.314Z,6.43
2022-10-11T19:32:26.915Z,5.55
2022-10-11T19:34:53.563Z,5.53
2022-10-11T19:37:20.254Z,6.65
2022-10-11T19:39:46.704Z,6.65
2022-10-11T19:42:13.199Z,6.60
2022-10-11T19:44:39.906Z,6.68
2022-10-11T19:47:06.588Z,6.80
2022-10-11T19:49:33.471Z,6.68
2022-10-11T19:52:01.131Z,6.47
2022-10-11T19:54:28.139Z,6.10
2022-10-11T19:56:54.683Z,7.38
2022-10-11T19:59:21.342Z,7.15
2022-10-11T20:01:52.682Z,6.38
2022-10-11T20:04:51.167Z,7.30
2022-10-11T20:07:07.220Z,8.95
2022-10-11T20:09:33.710Z,11.38
2022-10-11T20:12:00.148Z,11.20
2022-10-11T20:14:26.746Z,10.88
2022-10-11T20:16:53.505Z,11.73
2022-10-11T20:19:24.871Z,9.40
2022-10-11T20:21:55.523Z,10.68
2022-10-11T20:24:22.435Z,14.27
2022-10-11T20:26:48.892Z,12.75
2022-10-11T20:29:15.305Z,10.93
2022-10-11T20:31:42.788Z,8.82
2022-10-11T20:34:10.066Z,8.90
2022-10-11T20:36:36.637Z,8.93
2022-10-11T20:39:04.716Z,8.70
2022-10-11T20:41:33.637Z,8.02
2022-10-11T20:44:01.278Z,7.07
2022-10-11T20:46:31.205Z,8.35
2022-10-11T20:49:01.803Z,7.47
2022-10-11T20:51:33.735Z,8.50
2022-10-11T20:54:01.831Z,8.40
2022-10-11T20:56:28.431Z,8.35
2022-10-11T20:58:56.206Z,8.63
2022-10-11T21:01:28.828Z,7.82
2022-10-11T21:03:57.881Z,8.30
2022-10-11T21:06:26.088Z,7.18
2022-10-11T21:08:58.860Z,7.72
2022-10-11T21:11:31.037Z,7.10
2022-10-11T21:13:59.004Z,8.25
2022-10-11T21:16:26.014Z,8.60
2022-10-11T21:18:54.477Z,7.50
2022-10-11T21:21:21.698Z,7.35
2022-10-11T21:23:48.146Z,7.82
2022-10-11T21:26:18.280Z,8.10
2022-10-11T21:28:46.107Z,7.95
2022-10-11T21:31:16.129Z,7.68
2022-10-11T21:33:44.216Z,7.97
2022-10-11T21:36:13.644Z,8.48
2022-10-11T21:41:08.861Z,7.78
2022-10-11T21:43:37.930Z,8.30
2022-10-11T21:46:19.847Z,8.25
2022-10-11T21:48:47.302Z,8.15
2022-10-11T21:51:30.695Z,7.32
2022-10-11T21:54:00.207Z,7.80
2022-10-11T21:56:30.089Z,7.72
2022-10-11T21:58:56.854Z,7.95
2022-10-11T22:01:23.750Z,7.47
2022-10-11T22:03:53.796Z,7.43
2022-10-11T22:06:20.964Z,7.95
2022-10-11T22:08:48.799Z,7.68
2022-10-11T22:11:15.633Z,7.93
2022-10-11T22:13:42.530Z,8.05
2022-10-11T22:16:11.306Z,7.70
2022-10-11T22:18:38.124Z,8.18
2022-10-11T22:21:07.659Z,8.85
2022-10-11T22:23:34.503Z,8.45
2022-10-11T22:26:11.729Z,7.82
2022-10-11T22:28:38.313Z,8.93
2022-10-11T22:31:06.172Z,8.77
2022-10-11T22:33:33.169Z,8.43
2022-10-11T22:36:01.595Z,8.48
2022-10-11T22:38:28.470Z,8.25
2022-10-11T22:40:57.899Z,9.00
2022-10-11T22:45:50.908Z,8.35
2022-10-11T22:48:17.457Z,7.97
2022-10-11T22:50:43.955Z,7.78
2022-10-11T22:53:12.499Z,7.97
2022-10-11T22:55:39.043Z,7.97
2022-10-11T22:58:05.635Z,7.60
2022-10-11T23:00:32.809Z,7.38
2022-10-11T23:02:59.357Z,7.78
2022-10-11T23:05:26.297Z,7.85
2022-10-11T23:07:52.997Z,7.40
2022-10-11T23:10:19.850Z,7.32
2022-10-11T23:12:46.384Z,7.90
2022-10-11T23:15:12.987Z,7.60
2022-10-11T23:17:39.753Z,8.32
2022-10-11T23:20:07.138Z,7.47
2022-10-11T23:22:33.646Z,7.38
2022-10-11T23:25:00.199Z,7.90
2022-10-11T23:27:28.074Z,6.90
2022-10-11T23:29:54.712Z,7.20
2022-10-11T23:32:21.441Z,7.53
2022-10-11T23:34:48.418Z,7.32
2022-10-11T23:37:14.943Z,7.63
2022-10-11T23:39:41.703Z,7.40
2022-10-11T23:42:08.256Z,7.00
2022-10-11T23:44:34.882Z,7.05
2022-10-11T23:47:01.454Z,7.32
2022-10-11T23:49:28.138Z,7.15
2022-10-11T23:51:54.721Z,7.90
2022-10-11T23:54:21.370Z,7.05
2022-10-11T23:56:48.437Z,6.88
2022-10-11T23:59:14.967Z,7.80
